Hlavní strana
METAR-TAF:

METAR-TAF

Letiště :

Västerås, Švédsko

zeměpisná šířka: 59-35N, zeměpisná délka: 016-38E, výška: 6 m

Aktuální stav počasí

Zpráva byla vytvořena před 35 minutami, v 10:20 UTC
Jihojihozápadní vítr 11 kt
Teplota 9°C
Vlhkost vzduchu 87%
Tlak 1011 hPa
Viditelnost 10 km a více
Oblačno až skoro zataženo ve výšce 1300 ft

METAR: ESOW 251020Z 21011KT 9999 BKN013 09/07 Q1011 R19/19//95

Čas: 11:55 (10:55 UTC)

Předpověď počasí

Zpráva byla vytvořena před 2 hodinami a 25 minutami, v 08:30 UTC
Předpověď platná od 25 v 09 UTC do 25 v 16 UTC
Jihozápadní vítr 12 kt s nárazy do 22 kt
Viditelnost 10 km a více
Zataženo ve výšce 900 ft
Změna
od 25 v 09 UTC do 25 v 11 UTC
Oblačno až skoro zataženo ve výšce 1500 ft
Pravděpodobnost 40%
od 25 v 11 UTC do 25 v 16 UTC
Oblačno až skoro zataženo ve výšce 1400 ft

TAF: ESOW 250830Z 2509/2516 22012G22KT 9999 OVC009 BECMG 2509/2511 BKN015 PROB40 2511/2516 BKN014

Stav a předpovědi počasí z více než 4 000 letišť (zprávy METAR a TAF).

Červené a žluté tečky na mapě představují dostupné meteorologické stanice.

Když kurzor umístíte na tečku, zobrazí se název stanice.

Pak kliknutím zobrazíte stav a předpověď počasí.

Chcete-li změnit mapu, kliknutím na zelené tlačítko se znaménkem +mapu přiblížíte, kliknutím na zelené tlačítko se znaménkem – mapu oddálíte a kliknutím na zelené šipky přejdete na sousední mapy.


METAR-TAF: